Time;durP1;ratioP1;P1;durP2;ratioP2;P2;SDS_P1;SDS_P2;PMS_P1;PMS_P2;Temp;Humidity;BMP_temperature;BMP_pressure;BME280_temperature;BME280_humidity;BME280_pressure;Samples;Min_cycle;Max_cycle;Signal;HPM_P1;HPM_P2
2023/03/18 00:01:40;;;;;;;9.10;5.00;;;10.60;1.00;;;;;;7369545;19;20057;-72
2023/03/18 00:04:11;;;;;;;10.30;4.60;;;10.60;1.00;;;;;;7373178;19;20507;-71
2023/03/18 00:06:43;;;;;;;7.93;4.55;;;10.60;1.00;;;;;;7372791;19;20011;-72
2023/03/18 00:09:14;;;;;;;7.65;4.53;;;10.60;1.00;;;;;;7371746;19;20462;-73
2023/03/18 00:11:44;;;;;;;8.10;4.80;;;10.50;1.00;;;;;;7373889;19;20039;-73
2023/03/18 00:14:14;;;;;;;9.20;4.22;;;10.50;1.00;;;;;;7394478;19;20089;-71
2023/03/18 00:16:44;;;;;;;7.20;3.83;;;10.40;1.00;;;;;;7372787;19;20051;-71
2023/03/18 00:19:14;;;;;;;8.02;4.00;;;10.30;1.00;;;;;;7371976;19;20010;-71
2023/03/18 00:21:47;;;;;;;10.82;4.50;;;10.30;1.00;;;;;;7370814;19;20014;-71
2023/03/18 00:24:16;;;;;;;7.05;4.18;;;10.20;1.00;;;;;;7372739;19;20483;-72
2023/03/18 00:26:46;;;;;;;11.05;4.50;;;10.10;1.00;;;;;;7372309;19;20027;-71
2023/03/18 00:29:17;;;;;;;15.40;5.60;;;10.10;1.00;;;;;;7393557;19;20019;-71
2023/03/18 00:31:47;;;;;;;7.80;4.78;;;10.10;1.00;;;;;;7370659;19;20433;-72
2023/03/18 00:34:16;;;;;;;10.35;6.00;;;10.00;1.00;;;;;;7371863;19;20398;-72
2023/03/18 00:36:55;;;;;;;12.80;6.43;;;10.00;1.00;;;;;;7371554;19;20010;-72
2023/03/18 00:39:28;;;;;;;11.85;6.28;;;10.00;1.00;;;;;;7369202;19;20370;-72
2023/03/18 00:42:00;;;;;;;10.88;6.82;;;9.90;1.00;;;;;;7370721;19;20470;-72
2023/03/18 00:44:30;;;;;;;9.52;5.80;;;9.80;1.00;;;;;;7392542;19;20130;-71
2023/03/18 00:47:00;;;;;;;9.45;5.60;;;9.80;1.00;;;;;;7371908;19;20510;-72
2023/03/18 00:49:30;;;;;;;11.52;5.03;;;9.70;1.00;;;;;;7368552;19;20605;-71
2023/03/18 00:52:02;;;;;;;9.43;6.15;;;9.80;1.00;;;;;;7370775;19;20024;-72
2023/03/18 00:54:32;;;;;;;14.38;6.88;;;9.80;1.00;;;;;;7370636;19;20087;-72
2023/03/18 00:57:02;;;;;;;11.88;6.68;;;9.70;1.00;;;;;;7372057;19;20020;-71
2023/03/18 00:59:33;;;;;;;12.57;7.13;;;9.60;1.00;;;;;;7390106;19;20018;-71
2023/03/18 01:02:02;;;;;;;12.63;6.05;;;9.60;1.00;;;;;;7370045;19;20057;-71
2023/03/18 01:04:32;;;;;;;9.77;6.22;;;9.50;1.00;;;;;;7367916;19;20466;-70
2023/03/18 01:07:05;;;;;;;13.05;6.95;;;9.50;1.00;;;;;;7372071;19;20015;-71
2023/03/18 01:09:35;;;;;;;14.02;6.60;;;9.50;1.00;;;;;;7369368;19;20011;-71
2023/03/18 01:12:06;;;;;;;10.80;6.53;;;9.50;1.00;;;;;;7371298;19;20010;-71
2023/03/18 01:14:36;;;;;;;11.57;6.63;;;9.60;1.00;;;;;;7392636;19;20025;-72
2023/03/18 01:17:08;;;;;;;9.18;6.15;;;9.60;1.00;;;;;;7371675;19;20025;-72
2023/03/18 01:19:39;;;;;;;13.32;7.30;;;9.50;1.00;;;;;;7367948;19;20015;-69
2023/03/18 01:22:12;;;;;;;10.45;6.18;;;9.40;1.00;;;;;;7371096;19;20010;-71
2023/03/18 01:24:42;;;;;;;10.60;6.70;;;9.30;1.00;;;;;;7371057;19;20526;-71
2023/03/18 01:27:12;;;;;;;11.20;7.13;;;9.30;1.00;;;;;;7371193;19;20033;-72
2023/03/18 01:29:42;;;;;;;14.02;6.97;;;9.30;1.00;;;;;;7384797;19;20018;-69
2023/03/18 01:32:12;;;;;;;13.45;6.88;;;9.30;1.00;;;;;;7392543;19;20010;-71
2023/03/18 01:34:43;;;;;;;15.40;7.70;;;9.30;1.00;;;;;;7368633;19;20013;-71
2023/03/18 01:37:15;;;;;;;14.18;7.47;;;9.20;1.00;;;;;;7370938;19;20014;-72
2023/03/18 01:39:45;;;;;;;12.75;7.65;;;9.10;1.00;;;;;;7367403;19;20021;-72
2023/03/18 01:42:16;;;;;;;25.67;6.90;;;9.20;1.00;;;;;;7370113;19;20023;-72
2023/03/18 01:44:47;;;;;;;13.80;7.22;;;9.20;1.00;;;;;;7369787;19;20017;-72
2023/03/18 01:47:19;;;;;;;10.02;6.80;;;9.20;1.00;;;;;;7392720;19;20405;-72
2023/03/18 01:49:51;;;;;;;11.52;6.45;;;9.20;1.00;;;;;;7367070;19;20011;-72
2023/03/18 01:52:28;;;;;;;12.90;6.78;;;9.20;1.00;;;;;;7370007;19;20391;-72
2023/03/18 01:55:01;;;;;;;12.93;7.28;;;9.10;1.00;;;;;;7368923;19;20010;-72
2023/03/18 01:57:33;;;;;;;11.43;6.20;;;9.10;1.00;;;;;;7369895;19;20018;-72
2023/03/18 02:00:04;;;;;;;7.68;5.25;;;9.20;1.00;;;;;;7367016;19;20019;-72
2023/03/18 02:02:35;;;;;;;10.73;5.65;;;9.30;1.00;;;;;;7390188;19;20010;-71
2023/03/18 02:05:08;;;;;;;7.90;4.90;;;9.40;1.00;;;;;;7368773;19;20118;-72
2023/03/18 02:07:44;;;;;;;7.75;5.00;;;9.40;1.00;;;;;;7369485;19;20027;-72
2023/03/18 02:10:17;;;;;;;10.23;6.30;;;9.40;1.00;;;;;;7367656;19;20033;-71
2023/03/18 02:12:51;;;;;;;11.50;6.47;;;9.30;1.00;;;;;;7370333;19;20370;-72
2023/03/18 02:15:23;;;;;;;9.30;6.65;;;9.30;1.00;;;;;;7367752;19;20577;-72
2023/03/18 02:17:58;;;;;;;12.55;7.75;;;9.20;1.00;;;;;;7368228;19;20023;-71
2023/03/18 02:20:48;;;;;;;11.35;6.75;;;9.10;1.00;;;;;;7385851;19;20014;-71
2023/03/18 02:23:30;;;;;;;12.82;6.68;;;9.10;1.00;;;;;;7366958;19;20014;-71
2023/03/18 02:26:05;;;;;;;11.35;6.45;;;9.20;1.00;;;;;;7369429;19;20007;-72
2023/03/18 02:28:38;;;;;;;11.43;6.45;;;9.20;1.00;;;;;;7368492;19;20030;-72
2023/03/18 02:31:14;;;;;;;10.20;5.88;;;9.20;1.00;;;;;;7365813;19;20025;-71
2023/03/18 02:33:45;;;;;;;10.02;6.65;;;9.10;1.00;;;;;;7368169;19;20010;-71
2023/03/18 02:36:20;;;;;;;8.98;6.13;;;9.20;1.00;;;;;;7369151;19;20060;-71
2023/03/18 02:38:50;;;;;;;12.68;6.47;;;9.10;1.00;;;;;;7368602;19;20007;-71
2023/03/18 02:41:22;;;;;;;11.70;5.72;;;9.10;1.00;;;;;;7387258;19;20020;-72
2023/03/18 02:43:55;;;;;;;11.90;5.95;;;9.00;1.00;;;;;;7365883;19;20007;-72
2023/03/18 02:46:35;;;;;;;8.57;5.65;;;9.10;1.00;;;;;;7367182;19;20553;-72
2023/03/18 02:49:08;;;;;;;8.55;5.97;;;9.10;1.00;;;;;;7368115;19;20022;-72
2023/03/18 02:51:39;;;;;;;9.85;5.78;;;9.00;1.00;;;;;;7365891;19;20404;-72
2023/03/18 02:54:13;;;;;;;8.07;5.70;;;8.90;1.00;;;;;;7367919;19;20043;-71
2023/03/18 02:56:44;;;;;;;9.40;5.50;;;8.80;1.00;;;;;;7382240;19;20011;-71
2023/03/18 02:59:17;;;;;;;7.63;5.40;;;8.80;1.00;;;;;;7388437;19;20018;-72
2023/03/18 03:01:50;;;;;;;8.10;5.72;;;8.70;1.00;;;;;;7367335;19;20011;-71
2023/03/18 03:04:22;;;;;;;8.95;6.07;;;8.70;1.00;;;;;;7367331;19;20019;-71
2023/03/18 03:06:53;;;;;;;9.23;5.93;;;8.70;1.00;;;;;;7368372;19;20018;-71
2023/03/18 03:09:23;;;;;;;17.63;7.10;;;8.60;1.00;;;;;;7366143;19;20009;-71
2023/03/18 03:11:53;;;;;;;11.63;6.32;;;8.50;1.00;;;;;;7367589;19;20463;-71
2023/03/18 03:14:25;;;;;;;13.32;7.22;;;8.50;1.00;;;;;;7388252;19;20014;-71
2023/03/18 03:16:55;;;;;;;11.70;6.85;;;8.40;1.00;;;;;;7367887;19;20439;-71
2023/03/18 03:19:25;;;;;;;9.25;6.50;;;8.40;1.00;;;;;;7364408;19;20074;-71
2023/03/18 03:21:55;;;;;;;11.13;6.65;;;8.30;1.00;;;;;;7367518;19;20026;-71
2023/03/18 03:24:26;;;;;;;13.68;7.63;;;8.30;1.00;;;;;;7365130;19;20078;-70
2023/03/18 03:26:55;;;;;;;11.27;6.50;;;8.30;1.00;;;;;;7366943;19;20010;-71
2023/03/18 03:29:28;;;;;;;16.65;6.65;;;8.30;1.00;;;;;;7390225;19;20089;-71
2023/03/18 03:31:58;;;;;;;10.32;6.88;;;8.30;1.00;;;;;;7373891;19;20419;-71
2023/03/18 03:34:28;;;;;;;9.65;6.97;;;8.20;1.00;;;;;;7372257;19;20518;-71
2023/03/18 03:36:58;;;;;;;11.07;6.95;;;8.20;1.00;;;;;;7375021;19;20082;-70
2023/03/18 03:39:28;;;;;;;12.82;6.70;;;8.20;1.00;;;;;;7371589;19;20015;-71
2023/03/18 03:41:58;;;;;;;8.73;6.13;;;8.30;1.00;;;;;;7373435;19;20043;-71
2023/03/18 03:44:30;;;;;;;11.27;6.15;;;8.30;1.00;;;;;;7392045;19;20359;-71
2023/03/18 03:47:00;;;;;;;8.57;5.15;;;8.30;1.00;;;;;;7374343;19;20098;-71
2023/03/18 03:49:30;;;;;;;10.13;5.88;;;8.40;1.00;;;;;;7370527;19;20014;-71
2023/03/18 03:52:00;;;;;;;11.05;6.63;;;8.30;1.00;;;;;;7373764;19;20011;-71
2023/03/18 03:54:30;;;;;;;9.70;6.40;;;8.20;1.00;;;;;;7372865;19;20010;-71
2023/03/18 03:57:00;;;;;;;9.15;5.97;;;8.20;1.00;;;;;;7374357;19;20359;-71
2023/03/18 03:59:33;;;;;;;10.05;5.55;;;8.10;1.00;;;;;;7391832;19;20018;-71
2023/03/18 04:02:02;;;;;;;8.73;6.00;;;8.10;1.00;;;;;;7373370;19;20097;-71
2023/03/18 04:04:32;;;;;;;11.70;6.80;;;8.10;1.00;;;;;;7371901;19;20462;-71
2023/03/18 04:07:02;;;;;;;9.95;5.60;;;8.10;1.00;;;;;;7373926;19;20014;-71
2023/03/18 04:09:33;;;;;;;13.65;6.05;;;8.10;1.00;;;;;;7371729;19;20022;-71
2023/03/18 04:12:04;;;;;;;8.60;5.47;;;8.10;1.00;;;;;;7373725;19;20004;-71
2023/03/18 04:14:36;;;;;;;8.10;5.88;;;8.10;1.00;;;;;;7394574;19;20014;-71
2023/03/18 04:17:06;;;;;;;8.50;5.60;;;8.00;1.00;;;;;;7373368;19;20020;-72
2023/03/18 04:19:36;;;;;;;7.22;4.65;;;8.00;1.00;;;;;;7369736;19;20010;-71
2023/03/18 04:22:06;;;;;;;7.10;5.30;;;7.80;1.00;;;;;;7373226;19;20050;-71
2023/03/18 04:24:36;;;;;;;9.80;6.30;;;7.80;1.00;;;;;;7371308;19;20014;-71
2023/03/18 04:27:06;;;;;;;10.55;5.82;;;7.80;1.00;;;;;;7372890;19;20398;-72
2023/03/18 04:29:39;;;;;;;11.60;5.95;;;7.80;1.00;;;;;;7390941;19;20110;-71
2023/03/18 04:32:09;;;;;;;10.32;5.85;;;7.80;1.00;;;;;;7373023;19;20471;-71
2023/03/18 04:34:39;;;;;;;6.72;5.20;;;7.70;1.00;;;;;;7371439;19;20014;-72
2023/03/18 04:37:10;;;;;;;12.18;5.45;;;7.70;1.00;;;;;;7372853;19;20010;-71
2023/03/18 04:39:40;;;;;;;8.10;5.30;;;7.70;1.00;;;;;;7369671;19;20014;-72
2023/03/18 04:42:10;;;;;;;9.88;5.10;;;7.80;1.00;;;;;;7372028;19;20010;-70
2023/03/18 04:44:42;;;;;;;10.68;5.32;;;7.90;1.00;;;;;;7391191;19;20030;-72
2023/03/18 04:47:13;;;;;;;8.65;5.10;;;7.90;1.00;;;;;;7372705;19;20020;-72
2023/03/18 04:49:43;;;;;;;10.88;4.97;;;7.80;1.00;;;;;;7368726;19;20259;-70
2023/03/18 04:52:13;;;;;;;10.18;5.82;;;7.70;1.00;;;;;;7371264;19;20077;-71
2023/03/18 04:54:43;;;;;;;8.77;5.63;;;7.50;1.00;;;;;;7371144;19;20479;-71
2023/03/18 04:57:13;;;;;;;10.57;6.80;;;7.50;1.00;;;;;;7372900;19;20014;-69
2023/03/18 04:59:46;;;;;;;9.75;5.97;;;7.50;1.00;;;;;;7380251;19;20010;-69
2023/03/18 05:02:15;;;;;;;10.68;6.28;;;7.50;1.60;;;;;;7393229;19;20467;-70
2023/03/18 05:04:45;;;;;;;9.05;6.20;;;7.50;1.00;;;;;;7369056;19;20010;-70
2023/03/18 05:07:17;;;;;;;13.00;6.70;;;7.50;1.00;;;;;;7371770;19;20026;-70
2023/03/18 05:09:47;;;;;;;12.40;6.50;;;7.40;1.00;;;;;;7369726;19;20101;-70
2023/03/18 05:12:17;;;;;;;12.25;5.85;;;7.40;1.00;;;;;;7371750;19;20014;-71
2023/03/18 05:14:50;;;;;;;12.43;6.88;;;7.40;1.00;;;;;;7370038;19;20470;-69
2023/03/18 05:17:20;;;;;;;13.45;6.60;;;7.30;1.00;;;;;;7391890;19;20014;-70
2023/03/18 05:19:50;;;;;;;11.02;6.22;;;7.30;1.00;;;;;;7367621;19;20019;-71
2023/03/18 05:22:22;;;;;;;9.05;5.90;;;7.30;1.00;;;;;;7369876;19;20010;-71
2023/03/18 05:24:52;;;;;;;9.73;6.25;;;7.20;1.00;;;;;;7370179;19;20473;-71
2023/03/18 05:27:22;;;;;;;8.18;6.05;;;7.20;1.30;;;;;;7370127;19;20007;-71
2023/03/18 05:29:55;;;;;;;13.98;6.07;;;7.10;1.10;;;;;;7367359;19;20435;-71
2023/03/18 05:32:25;;;;;;;8.38;5.80;;;7.10;1.00;;;;;;7391548;19;20014;-71
2023/03/18 05:34:55;;;;;;;8.75;5.90;;;7.10;1.00;;;;;;7369493;19;20011;-72
2023/03/18 05:37:26;;;;;;;9.43;6.07;;;7.20;1.00;;;;;;7369990;19;20006;-71
2023/03/18 05:39:55;;;;;;;10.18;6.10;;;7.20;1.00;;;;;;7368550;19;20015;-71
2023/03/18 05:42:25;;;;;;;11.27;6.32;;;7.20;1.00;;;;;;7369279;19;20470;-70
2023/03/18 05:44:58;;;;;;;11.25;6.20;;;7.20;1.00;;;;;;7368183;19;20029;-71
2023/03/18 05:47:28;;;;;;;14.02;5.85;;;7.10;1.00;;;;;;7392642;19;20038;-71
2023/03/18 05:49:58;;;;;;;10.45;6.65;;;7.10;1.00;;;;;;7366241;19;20021;-71
2023/03/18 05:52:28;;;;;;;12.30;6.32;;;7.10;1.00;;;;;;7368924;19;20014;-71
2023/03/18 05:54:58;;;;;;;9.50;6.50;;;7.10;1.00;;;;;;7369222;19;20007;-71
2023/03/18 05:57:28;;;;;;;10.20;5.75;;;7.10;1.00;;;;;;7370692;19;20016;-71
2023/03/18 06:00:00;;;;;;;9.68;5.70;;;7.10;1.00;;;;;;7366740;19;20014;-71
2023/03/18 06:02:31;;;;;;;12.25;5.95;;;7.10;1.00;;;;;;7391721;19;20074;-71
2023/03/18 06:05:01;;;;;;;11.10;5.68;;;7.10;1.00;;;;;;7367873;19;20014;-71
2023/03/18 06:07:31;;;;;;;9.95;5.63;;;7.20;1.00;;;;;;7368891;19;20010;-71
2023/03/18 06:10:01;;;;;;;10.65;5.55;;;7.20;1.00;;;;;;7367461;19;20375;-71
2023/03/18 06:12:31;;;;;;;8.80;5.65;;;7.30;1.00;;;;;;7369692;19;20049;-71
2023/03/18 06:15:03;;;;;;;9.82;4.88;;;7.30;1.00;;;;;;7368764;19;20014;-71
2023/03/18 06:17:33;;;;;;;9.52;5.32;;;7.30;1.00;;;;;;7389506;19;20085;-71
2023/03/18 06:20:03;;;;;;;8.23;4.88;;;7.30;1.00;;;;;;7364586;19;20373;-71
2023/03/18 06:22:34;;;;;;;9.77;5.97;;;7.30;1.00;;;;;;7368327;19;20017;-71
2023/03/18 06:25:06;;;;;;;11.80;5.03;;;7.40;1.00;;;;;;7367769;19;20017;-71
2023/03/18 06:27:36;;;;;;;11.07;5.43;;;7.40;1.00;;;;;;7368293;19;20017;-72
2023/03/18 06:30:10;;;;;;;9.93;5.50;;;7.50;1.00;;;;;;7366041;19;20010;-71
2023/03/18 06:32:40;;;;;;;8.30;5.00;;;7.50;1.00;;;;;;7390887;19;20025;-71
2023/03/18 06:35:12;;;;;;;8.77;4.88;;;7.60;1.00;;;;;;7368442;19;20011;-71
2023/03/18 06:37:42;;;;;;;6.63;4.35;;;7.70;1.00;;;;;;7367639;19;20490;-71
2023/03/18 06:40:13;;;;;;;14.00;6.05;;;7.90;1.00;;;;;;7366609;19;20533;-71
2023/03/18 06:42:43;;;;;;;14.30;8.70;;;7.80;1.00;;;;;;7368304;19;20015;-71
2023/03/18 06:45:16;;;;;;;10.48;6.60;;;7.80;1.00;;;;;;7367931;19;20014;-71
2023/03/18 06:47:46;;;;;;;10.00;6.70;;;7.80;1.00;;;;;;7368512;19;20025;-71
2023/03/18 06:50:17;;;;;;;13.48;6.80;;;8.00;1.00;;;;;;7386359;19;20089;-71
2023/03/18 06:52:46;;;;;;;8.63;6.82;;;8.00;1.00;;;;;;7368442;19;20027;-71
2023/03/18 06:55:16;;;;;;;11.70;6.57;;;8.10;1.00;;;;;;7367552;19;20006;-72
2023/03/18 06:57:46;;;;;;;13.77;7.10;;;8.10;1.00;;;;;;7368124;19;20015;-71
2023/03/18 07:00:20;;;;;;;14.57;7.50;;;8.10;1.00;;;;;;7365364;19;20011;-72
2023/03/18 07:02:51;;;;;;;11.48;7.07;;;8.00;1.00;;;;;;7368202;19;20367;-72
2023/03/18 07:05:22;;;;;;;11.75;7.40;;;8.20;1.00;;;;;;7394360;19;20010;-72
2023/03/18 07:07:53;;;;;;;10.10;6.88;;;8.40;1.00;;;;;;7375311;19;20358;-72
2023/03/18 07:10:26;;;;;;;10.63;6.93;;;8.60;1.00;;;;;;7372001;19;20025;-71
2023/03/18 07:12:56;;;;;;;12.50;7.47;;;8.60;1.00;;;;;;7375003;19;20082;-73
2023/03/18 07:15:30;;;;;;;13.18;7.45;;;8.70;1.00;;;;;;7373515;19;20006;-71
2023/03/18 07:18:03;;;;;;;11.60;7.47;;;8.90;1.00;;;;;;7374966;19;20483;-71
2023/03/18 07:20:35;;;;;;;12.75;8.30;;;9.10;1.00;;;;;;7391790;19;20014;-71
2023/03/18 07:23:05;;;;;;;15.10;8.10;;;9.20;1.00;;;;;;7374833;19;20010;-71
2023/03/18 07:25:35;;;;;;;12.85;8.68;;;9.30;1.00;;;;;;7371808;19;20545;-71
2023/03/18 07:28:05;;;;;;;12.70;7.32;;;9.50;1.00;;;;;;7373895;19;20126;-71
2023/03/18 07:30:38;;;;;;;10.98;6.88;;;9.40;1.00;;;;;;7370565;19;20015;-71
2023/03/18 07:33:08;;;;;;;11.50;6.43;;;9.50;1.00;;;;;;7375183;19;20021;-71
2023/03/18 07:35:40;;;;;;;11.73;6.63;;;9.50;1.00;;;;;;7395012;19;20042;-71
2023/03/18 07:38:10;;;;;;;12.00;6.13;;;9.70;1.00;;;;;;7374542;19;20003;-71
2023/03/18 07:40:40;;;;;;;10.27;5.90;;;9.80;1.00;;;;;;7372568;19;20017;-71
2023/03/18 07:43:10;;;;;;;11.98;7.18;;;9.90;1.00;;;;;;7373522;19;20010;-71
2023/03/18 07:45:42;;;;;;;11.60;7.47;;;10.20;1.00;;;;;;7373441;19;20010;-72
2023/03/18 07:48:13;;;;;;;11.60;7.03;;;10.20;1.00;;;;;;7374017;19;20007;-72
2023/03/18 07:50:43;;;;;;;13.13;6.07;;;10.50;1.00;;;;;;7384555;19;20374;-71
2023/03/18 07:53:13;;;;;;;11.30;5.40;;;10.80;1.00;;;;;;7395575;19;20510;-72
2023/03/18 07:55:46;;;;;;;7.97;5.13;;;11.00;1.00;;;;;;7372321;19;20669;-72
2023/03/18 07:58:15;;;;;;;6.90;4.57;;;11.20;1.00;;;;;;7373726;19;20032;-72
2023/03/18 08:00:48;;;;;;;7.53;4.05;;;11.40;1.00;;;;;;7369767;19;20006;-71
2023/03/18 08:03:18;;;;;;;5.93;3.88;;;11.70;1.00;;;;;;7373056;19;20030;-72
2023/03/18 08:05:48;;;;;;;5.72;3.70;;;11.80;1.00;;;;;;7371053;19;20021;-71
2023/03/18 08:08:18;;;;;;;6.82;3.42;;;11.90;1.00;;;;;;7393238;19;20030;-72
2023/03/18 08:10:48;;;;;;;7.80;3.17;;;12.00;1.00;;;;;;7370026;19;20022;-71
2023/03/18 08:13:18;;;;;;;8.23;3.00;;;12.10;1.00;;;;;;7372425;19;20502;-71
2023/03/18 08:15:50;;;;;;;7.50;3.58;;;12.30;1.00;;;;;;7372265;19;20046;-71
2023/03/18 08:18:20;;;;;;;7.68;3.55;;;12.40;1.00;;;;;;7371613;19;20044;-71
2023/03/18 08:20:51;;;;;;;7.07;3.35;;;12.50;1.00;;;;;;7367835;19;20629;-71
2023/03/18 08:23:22;;;;;;;4.95;3.20;;;12.60;1.00;;;;;;7392495;19;20027;-71
2023/03/18 08:25:52;;;;;;;6.72;3.25;;;12.80;1.00;;;;;;7372127;19;20029;-71
2023/03/18 08:28:22;;;;;;;4.75;3.08;;;12.90;1.00;;;;;;7389466;19;20018;-71
2023/03/18 08:30:58;;;;;;;5.00;3.05;;;13.10;1.00;;;;;;7402231;19;20398;-71
2023/03/18 08:33:28;;;;;;;6.32;3.42;;;13.10;1.00;;;;;;7404810;19;20006;-70
2023/03/18 08:35:59;;;;;;;6.82;2.85;;;13.30;1.00;;;;;;7382458;19;20043;-72
2023/03/18 08:38:28;;;;;;;8.40;3.72;;;13.10;1.00;;;;;;7395238;19;20082;-71
2023/03/18 08:40:58;;;;;;;7.72;3.72;;;13.30;1.00;;;;;;7371074;19;20412;-72
2023/03/18 08:43:28;;;;;;;5.82;2.85;;;13.60;1.00;;;;;;7371484;19;20007;-71
2023/03/18 08:46:01;;;;;;;6.05;3.45;;;13.70;1.00;;;;;;7371149;19;20011;-71
2023/03/18 08:48:31;;;;;;;9.70;4.13;;;13.70;1.00;;;;;;7371271;19;20006;-71
2023/03/18 08:51:01;;;;;;;8.02;3.65;;;13.80;1.00;;;;;;7368655;19;20015;-71
2023/03/18 08:53:31;;;;;;;6.18;3.55;;;14.00;1.00;;;;;;7393115;19;20014;-72
2023/03/18 08:56:01;;;;;;;9.10;3.38;;;14.10;1.00;;;;;;7372201;19;20066;-71
2023/03/18 08:58:32;;;;;;;7.55;3.40;;;14.10;1.00;;;;;;7370698;19;20015;-72
2023/03/18 09:01:04;;;;;;;5.13;2.90;;;14.00;1.00;;;;;;7369633;19;20036;-70
2023/03/18 09:03:35;;;;;;;7.72;2.88;;;14.00;1.00;;;;;;7370748;19;20541;-71
2023/03/18 09:06:05;;;;;;;7.30;3.15;;;14.10;1.00;;;;;;7370119;19;20470;-71
2023/03/18 09:08:35;;;;;;;8.85;3.30;;;14.30;1.00;;;;;;7391555;19;20013;-71
2023/03/18 09:11:06;;;;;;;4.35;2.40;;;14.40;1.00;;;;;;7370111;19;20011;-71
2023/03/18 09:13:37;;;;;;;7.22;2.97;;;14.50;1.00;;;;;;7369978;19;20018;-71
2023/03/18 09:16:11;;;;;;;5.30;2.58;;;14.60;1.00;;;;;;7371416;19;20017;-69
2023/03/18 09:18:41;;;;;;;5.07;2.40;;;14.80;1.00;;;;;;7369019;19;20055;-71
2023/03/18 09:21:14;;;;;;;7.80;2.38;;;14.60;1.00;;;;;;7370688;19;20386;-72
2023/03/18 09:23:44;;;;;;;5.25;2.58;;;15.00;1.00;;;;;;7374268;19;20497;-71
2023/03/18 09:26:14;;;;;;;6.50;2.35;;;15.00;1.00;;;;;;7390845;19;20041;-71
2023/03/18 09:28:44;;;;;;;10.45;2.30;;;15.20;1.00;;;;;;7369759;19;20038;-71
2023/03/18 09:31:16;;;;;;;6.63;2.45;;;15.40;1.00;;;;;;7369913;19;20017;-70
2023/03/18 09:33:47;;;;;;;5.90;2.10;;;15.30;1.00;;;;;;7370236;19;20658;-70
2023/03/18 09:36:17;;;;;;;3.95;1.80;;;15.40;1.00;;;;;;7371959;19;20010;-71
2023/03/18 09:38:47;;;;;;;4.55;1.83;;;15.50;1.00;;;;;;7369095;19;20014;-70
2023/03/18 09:41:28;;;;;;;4.05;1.70;;;15.50;1.00;;;;;;7392086;19;20270;-71
2023/03/18 09:44:09;;;;;;;2.45;1.58;;;15.70;1.00;;;;;;7370038;19;20084;-71
2023/03/18 09:46:54;;;;;;;3.28;1.42;;;15.60;1.00;;;;;;7369236;19;20018;-71
2023/03/18 09:49:35;;;;;;;4.15;1.45;;;15.60;1.00;;;;;;7366980;19;20018;-72
2023/03/18 09:52:18;;;;;;;4.85;1.50;;;15.80;1.00;;;;;;7370029;19;20090;-72
2023/03/18 09:54:55;;;;;;;5.63;1.77;;;15.90;1.00;;;;;;7368156;19;20581;-72
2023/03/18 09:57:28;;;;;;;4.18;1.70;;;16.00;1.00;;;;;;7369075;19;20036;-71
2023/03/18 10:00:07;;;;;;;5.95;2.08;;;16.00;1.00;;;;;;7364767;19;20038;-71
2023/03/18 10:02:46;;;;;;;4.63;2.10;;;16.20;1.00;;;;;;7389398;19;20018;-71
2023/03/18 10:05:19;;;;;;;6.72;2.05;;;16.10;1.00;;;;;;7369014;19;20010;-71
2023/03/18 10:07:54;;;;;;;3.33;1.95;;;16.00;1.00;;;;;;7367669;19;20017;-72
2023/03/18 10:10:28;;;;;;;4.40;2.30;;;16.10;1.00;;;;;;7366638;19;20417;-72
2023/03/18 10:13:09;;;;;;;3.88;1.63;;;16.00;1.00;;;;;;7368836;19;20017;-72
2023/03/18 10:15:44;;;;;;;7.40;2.50;;;16.10;1.00;;;;;;7366752;19;20010;-72
2023/03/18 10:18:25;;;;;;;6.35;2.20;;;16.10;1.00;;;;;;7368831;19;20024;-71
2023/03/18 10:21:06;;;;;;;3.13;1.90;;;16.10;1.00;;;;;;7366777;19;20014;-72
2023/03/18 10:23:48;;;;;;;3.38;1.85;;;16.30;1.00;;;;;;7390003;19;20018;-72
2023/03/18 10:26:24;;;;;;;2.72;1.45;;;16.50;1.00;;;;;;7368890;19;20006;-72
2023/03/18 10:29:22;;;;;;;7.38;1.77;;;16.40;1.00;;;;;;7367205;19;20014;-72
2023/03/18 10:32:09;;;;;;;6.00;2.08;;;16.40;1.00;;;;;;7368387;19;20086;-70
2023/03/18 10:34:58;;;;;;;3.67;1.30;;;16.40;1.00;;;;;;7366705;19;20105;-72
2023/03/18 10:37:38;;;;;;;2.65;1.50;;;16.40;1.00;;;;;;7367492;19;21055;-72
2023/03/18 10:40:16;;;;;;;8.05;1.70;;;16.50;1.00;;;;;;7366277;19;20014;-71
2023/03/18 10:42:47;;;;;;;4.63;1.67;;;16.40;1.00;;;;;;7368649;19;20463;-70
2023/03/18 10:45:23;;;;;;;3.38;1.60;;;16.40;1.00;;;;;;7367465;19;20010;-71
2023/03/18 10:48:03;;;;;;;3.08;1.65;;;16.70;1.00;;;;;;7367410;19;20014;-71
2023/03/18 10:50:41;;;;;;;3.00;1.33;;;16.60;1.00;;;;;;7386801;19;20334;-71
2023/03/18 10:53:19;;;;;;;4.03;1.50;;;16.50;1.00;;;;;;7368842;19;20010;-72
2023/03/18 10:55:56;;;;;;;3.17;1.30;;;16.50;1.00;;;;;;7367758;19;20018;-72
2023/03/18 10:58:28;;;;;;;4.38;1.77;;;16.40;1.00;;;;;;7365477;19;20456;-71
2023/03/18 11:00:59;;;;;;;3.25;1.88;;;16.50;1.00;;;;;;7365673;19;20486;-71
2023/03/18 11:03:33;;;;;;;6.53;1.65;;;16.50;1.00;;;;;;7365630;19;20014;-72
2023/03/18 11:06:08;;;;;;;3.53;1.50;;;16.70;1.00;;;;;;7368020;19;20020;-71
2023/03/18 11:08:39;;;;;;;3.28;1.33;;;17.00;1.00;;;;;;7384942;19;20021;-71
2023/03/18 11:11:21;;;;;;;6.53;1.52;;;16.70;1.00;;;;;;7366543;19;20018;-71
2023/03/18 11:13:54;;;;;;;4.63;1.67;;;16.80;1.00;;;;;;7365998;19;20061;-72
2023/03/18 11:16:29;;;;;;;2.70;1.50;;;16.70;1.00;;;;;;7367106;19;20033;-71
2023/03/18 11:19:00;;;;;;;3.63;1.60;;;16.90;1.00;;;;;;7364941;19;20466;-71
2023/03/18 11:21:33;;;;;;;3.25;1.25;;;16.80;1.00;;;;;;7366774;19;20038;-71
2023/03/18 11:24:19;;;;;;;3.58;1.45;;;16.80;1.00;;;;;;7367160;19;20541;-72
2023/03/18 11:26:55;;;;;;;2.63;1.40;;;16.70;1.00;;;;;;7366620;19;20418;-71
2023/03/18 11:29:30;;;;;;;5.38;1.50;;;16.80;1.00;;;;;;7385143;19;20044;-72
2023/03/18 11:32:02;;;;;;;3.53;1.67;;;17.00;1.00;;;;;;7366340;19;20006;-72
2023/03/18 11:34:34;;;;;;;8.57;2.03;;;17.10;1.00;;;;;;7365429;19;20015;-72
2023/03/18 11:37:08;;;;;;;7.47;2.08;;;17.40;1.00;;;;;;7367137;19;20355;-72
2023/03/18 11:39:41;;;;;;;4.88;1.50;;;17.50;1.00;;;;;;7364988;19;20682;-71
2023/03/18 11:42:20;;;;;;;2.50;1.35;;;17.50;1.00;;;;;;7367511;19;20085;-72
2023/03/18 11:44:56;;;;;;;2.33;1.50;;;17.30;1.00;;;;;;7364952;19;20015;-73
2023/03/18 11:47:29;;;;;;;4.28;1.77;;;17.30;1.00;;;;;;7388590;19;20019;-72
2023/03/18 11:50:08;;;;;;;4.10;1.47;;;17.40;1.00;;;;;;7367708;19;20478;-72
2023/03/18 11:52:48;;;;;;;3.78;1.63;;;17.40;1.00;;;;;;7375402;19;20022;-72
2023/03/18 11:55:30;;;;;;;3.92;1.60;;;17.70;1.00;;;;;;7375655;19;20017;-70
2023/03/18 11:58:36;;;;;;;4.47;1.55;;;17.50;1.00;;;;;;7375569;19;20014;-71
2023/03/18 12:01:12;;;;;;;3.13;1.45;;;17.60;1.00;;;;;;7372555;19;20007;-71
2023/03/18 12:04:15;;;;;;;2.15;1.30;;;17.40;1.00;;;;;;7372819;19;20031;-72
2023/03/18 12:06:56;;;;;;;6.43;1.88;;;17.50;1.00;;;;;;7402757;19;20010;-70
2023/03/18 12:09:37;;;;;;;4.10;1.65;;;17.60;1.00;;;;;;7404968;19;20049;-71
2023/03/18 12:12:28;;;;;;;3.70;1.60;;;17.90;1.00;;;;;;7397520;19;20038;-71
2023/03/18 12:15:05;;;;;;;4.75;1.50;;;17.70;1.00;;;;;;7383091;19;20011;-72
2023/03/18 12:17:46;;;;;;;3.35;0.98;;;17.60;1.00;;;;;;7397592;19;20025;-71
2023/03/18 12:20:42;;;;;;;5.80;2.22;;;17.90;1.00;;;;;;7370151;19;20016;-70
2023/03/18 12:23:23;;;;;;;7.15;1.00;;;18.10;1.00;;;;;;7374018;19;20193;-71
2023/03/18 12:26:04;;;;;;;4.45;1.60;;;18.10;1.00;;;;;;7372700;19;20114;-70
2023/03/18 12:28:48;;;;;;;2.05;1.30;;;18.30;1.00;;;;;;7368875;19;20018;-71
2023/03/18 12:31:39;;;;;;;;;;;18.20;1.00;;;;;;7373060;19;20010;-72
2023/03/18 12:34:23;;;;;;;3.05;1.40;;;17.80;1.00;;;;;;7371779;19;19919;-71
2023/03/18 12:37:06;;;;;;;3.55;1.48;;;18.20;1.00;;;;;;7372728;19;20011;-71
2023/03/18 12:40:14;;;;;;;3.22;1.02;;;18.20;1.00;;;;;;7369806;19;20024;-71
2023/03/18 12:43:07;;;;;;;3.60;1.00;;;18.20;1.00;;;;;;7371710;19;20031;-72
2023/03/18 12:45:41;;;;;;;3.08;1.20;;;18.20;1.00;;;;;;7372635;19;20504;-70
2023/03/18 12:48:16;;;;;;;4.47;1.48;;;18.30;1.00;;;;;;7371185;19;20738;-71
2023/03/18 12:50:51;;;;;;;3.75;1.25;;;18.30;1.00;;;;;;7369422;19;20018;-70
2023/03/18 12:53:31;;;;;;;4.13;1.15;;;18.30;1.00;;;;;;7391652;19;20036;-72
2023/03/18 12:56:05;;;;;;;4.03;1.50;;;18.40;1.00;;;;;;7371591;19;20509;-71
2023/03/18 12:58:42;;;;;;;4.32;1.45;;;18.50;1.00;;;;;;7370752;19;20025;-71
2023/03/18 13:01:19;;;;;;;4.82;1.25;;;18.50;1.00;;;;;;7368086;19;20014;-72
2023/03/18 13:03:54;;;;;;;4.00;1.75;;;18.60;1.00;;;;;;7371236;19;20091;-72
2023/03/18 13:06:29;;;;;;;2.95;1.27;;;18.70;1.00;;;;;;7370878;19;20050;-71
2023/03/18 13:09:06;;;;;;;2.78;1.55;;;18.80;1.00;;;;;;7368593;19;20498;-72
2023/03/18 13:12:08;;;;;;;2.92;1.50;;;18.50;1.00;;;;;;7392962;19;20039;-72
2023/03/18 13:14:51;;;;;;;2.78;1.33;;;18.80;1.00;;;;;;7266955;19;2004232;-72
2023/03/18 13:17:28;;;;;;;1.88;1.30;;;18.70;1.00;;;;;;7393039;19;20074;-71
2023/03/18 13:20:00;;;;;;;7.07;1.42;;;18.80;1.00;;;;;;7367022;19;20010;-72
2023/03/18 13:22:53;;;;;;;3.35;1.30;;;18.60;1.00;;;;;;7370296;19;20019;-73
2023/03/18 13:25:35;;;;;;;6.40;1.20;;;18.80;1.00;;;;;;7370549;19;20013;-72
2023/03/18 13:28:19;;;;;;;2.63;1.13;;;19.00;1.00;;;;;;7370533;19;20482;-72
2023/03/18 13:31:02;;;;;;;3.13;1.20;;;19.10;1.00;;;;;;7368650;19;20011;-72